createdAt,value
2018-03-14T00:01:19.089Z,4.73
2018-03-14T00:03:46.550Z,4.90
2018-03-14T00:06:14.246Z,4.63
2018-03-14T00:08:42.498Z,5.20
2018-03-14T00:11:09.971Z,4.77
2018-03-14T00:13:37.830Z,5.27
2018-03-14T00:16:05.517Z,5.43
2018-03-14T00:18:33.895Z,4.93
2018-03-14T00:21:03.127Z,4.67
2018-03-14T00:23:31.329Z,5.60
2018-03-14T00:25:59.490Z,4.97
2018-03-14T00:28:27.290Z,5.97
2018-03-14T00:30:54.746Z,5.40
2018-03-14T00:33:22.294Z,5.23
2018-03-14T00:35:49.751Z,5.63
2018-03-14T00:38:17.269Z,6.07
2018-03-14T00:40:46.616Z,5.70
2018-03-14T00:43:14.081Z,6.20
2018-03-14T00:45:42.138Z,6.33
2018-03-14T00:48:09.734Z,4.13
2018-03-14T00:50:37.938Z,4.30
2018-03-14T00:53:07.622Z,4.90
2018-03-14T00:55:36.672Z,4.30
2018-03-14T00:58:04.957Z,3.00
2018-03-14T01:00:32.479Z,3.10
2018-03-14T01:03:01.782Z,3.33
2018-03-14T01:05:30.006Z,2.80
2018-03-14T01:07:58.131Z,2.87
2018-03-14T01:10:27.274Z,2.80
2018-03-14T01:12:55.070Z,2.80
2018-03-14T01:15:22.513Z,3.00
2018-03-14T01:17:49.983Z,2.93
2018-03-14T01:20:17.440Z,2.93
2018-03-14T01:22:44.962Z,3.07
2018-03-14T01:25:13.203Z,3.40
2018-03-14T01:27:42.054Z,2.70
2018-03-14T01:30:09.949Z,3.60
2018-03-14T01:32:37.412Z,3.10
2018-03-14T01:35:05.630Z,3.03
2018-03-14T01:37:33.637Z,3.23
2018-03-14T01:40:02.674Z,3.23
2018-03-14T01:42:30.506Z,2.97
2018-03-14T01:44:57.954Z,3.03
2018-03-14T01:47:25.835Z,2.90
2018-03-14T01:49:53.279Z,3.03
2018-03-14T01:52:21.050Z,3.60
2018-03-14T01:54:48.498Z,3.30
2018-03-14T01:57:16.436Z,2.93
2018-03-14T01:59:44.687Z,3.30
2018-03-14T02:02:13.343Z,3.23
2018-03-14T02:04:43.487Z,3.60
2018-03-14T02:07:12.494Z,3.57
2018-03-14T02:09:40.327Z,3.60
2018-03-14T02:12:07.883Z,3.40
2018-03-14T02:14:35.519Z,3.27
2018-03-14T02:17:03.006Z,3.67
2018-03-14T02:19:31.233Z,3.50
2018-03-14T02:22:01.225Z,3.17
2018-03-14T02:24:30.602Z,3.67
2018-03-14T02:26:58.632Z,3.63
2018-03-14T02:29:26.092Z,3.90
2018-03-14T02:31:53.585Z,3.93
2018-03-14T02:34:22.673Z,3.97
2018-03-14T02:37:01.960Z,3.87
2018-03-14T02:39:30.174Z,3.60
2018-03-14T02:41:58.490Z,4.07
2018-03-14T02:44:27.230Z,3.70
2018-03-14T02:46:55.394Z,4.00
2018-03-14T02:49:23.147Z,4.37
2018-03-14T02:51:50.657Z,4.03
2018-03-14T02:54:18.111Z,4.20
2018-03-14T02:56:45.682Z,4.00
2018-03-14T02:59:13.958Z,4.13
2018-03-14T03:01:42.235Z,4.40
2018-03-14T03:04:10.850Z,4.30
2018-03-14T03:06:39.074Z,4.23
2018-03-14T03:09:06.530Z,4.37
2018-03-14T03:11:34.730Z,4.43
2018-03-14T03:14:02.185Z,4.73
2018-03-14T03:16:29.646Z,4.30
2018-03-14T03:18:57.099Z,4.90
2018-03-14T03:21:25.378Z,4.63
2018-03-14T03:23:53.486Z,4.83
2018-03-14T03:26:21.729Z,5.33
2018-03-14T03:28:49.511Z,5.00
2018-03-14T03:31:17.787Z,5.53
2018-03-14T03:33:45.229Z,5.60
2018-03-14T03:36:14.781Z,5.57
2018-03-14T03:38:43.027Z,4.83
2018-03-14T03:41:10.491Z,5.30
2018-03-14T03:43:39.426Z,5.93
2018-03-14T03:46:07.746Z,5.93
2018-03-14T03:48:37.058Z,6.10
2018-03-14T03:51:04.518Z,5.80
2018-03-14T03:53:32.950Z,5.83
2018-03-14T03:56:00.406Z,5.67
2018-03-14T03:58:27.858Z,5.63
2018-03-14T04:00:55.558Z,5.50
2018-03-14T04:03:23.012Z,5.37
2018-03-14T04:05:50.987Z,5.57
2018-03-14T04:08:18.445Z,5.70
2018-03-14T04:10:46.273Z,5.23
2018-03-14T04:13:14.239Z,6.00
2018-03-14T04:15:41.702Z,5.53
2018-03-14T04:18:09.149Z,5.40
2018-03-14T04:20:36.606Z,6.73
2018-03-14T04:23:04.054Z,5.47
2018-03-14T04:25:33.201Z,5.57
2018-03-14T04:28:01.019Z,5.67
2018-03-14T04:30:29.254Z,6.17
2018-03-14T04:32:57.474Z,6.30
2018-03-14T04:35:24.934Z,5.70
2018-03-14T04:37:52.383Z,6.23
2018-03-14T04:40:19.851Z,5.73
2018-03-14T04:42:47.668Z,6.20
2018-03-14T04:45:15.138Z,6.13
2018-03-14T04:47:42.586Z,5.93
2018-03-14T04:50:11.206Z,6.27
2018-03-14T04:52:39.482Z,6.03
2018-03-14T04:55:07.935Z,5.63
2018-03-14T04:57:37.075Z,5.67
2018-03-14T05:00:04.534Z,4.97
2018-03-14T05:02:32.898Z,5.40
2018-03-14T05:05:01.287Z,5.60
2018-03-14T05:07:29.537Z,6.87
2018-03-14T05:09:56.972Z,5.37
2018-03-14T05:12:25.321Z,5.50
2018-03-14T05:14:53.082Z,7.50
2018-03-14T05:17:20.525Z,6.07
2018-03-14T05:19:48.043Z,6.50
2018-03-14T05:22:17.019Z,6.57
2018-03-14T05:24:44.497Z,6.40
2018-03-14T05:27:12.427Z,7.07
2018-03-14T05:29:39.898Z,6.97
2018-03-14T05:32:07.350Z,7.07
2018-03-14T05:34:34.843Z,7.53
2018-03-14T05:37:03.946Z,6.60
2018-03-14T05:39:31.895Z,6.97
2018-03-14T05:41:59.554Z,6.60
2018-03-14T05:44:27.010Z,7.47
2018-03-14T05:46:55.481Z,6.50
2018-03-14T05:49:22.942Z,6.00
2018-03-14T05:51:51.250Z,6.83
2018-03-14T05:54:18.803Z,5.80
2018-03-14T05:56:46.257Z,4.87
2018-03-14T05:59:13.718Z,5.17
2018-03-14T06:01:43.031Z,5.57
2018-03-14T06:04:10.580Z,5.90
2018-03-14T06:06:38.797Z,5.37
2018-03-14T06:09:06.815Z,4.90
2018-03-14T06:11:35.083Z,5.00
2018-03-14T06:14:02.998Z,5.00
2018-03-14T06:16:31.835Z,5.03
2018-03-14T06:18:59.294Z,4.57
2018-03-14T06:21:26.741Z,7.03
2018-03-14T06:23:54.986Z,4.70
2018-03-14T06:26:23.835Z,4.63
2018-03-14T06:28:51.715Z,4.40
2018-03-14T06:31:19.180Z,3.87
2018-03-14T06:33:47.246Z,3.90
2018-03-14T06:36:14.803Z,3.60
2018-03-14T06:38:43.402Z,3.80
2018-03-14T06:41:11.627Z,4.23
2018-03-14T06:43:39.128Z,3.97
2018-03-14T06:46:07.352Z,4.57
2018-03-14T06:48:35.991Z,5.33
2018-03-14T06:51:03.684Z,5.20
2018-03-14T06:53:31.527Z,4.43
2018-03-14T06:55:58.978Z,4.20
2018-03-14T06:58:38.207Z,4.47
2018-03-14T07:01:18.362Z,4.30
2018-03-14T07:03:58.582Z,4.70
2018-03-14T07:06:26.074Z,3.83
2018-03-14T07:08:53.535Z,4.60
2018-03-14T07:11:22.077Z,4.83
2018-03-14T07:13:50.186Z,4.20
2018-03-14T07:16:17.639Z,4.20
2018-03-14T07:18:45.096Z,4.97
2018-03-14T07:21:13.934Z,3.90
2018-03-14T07:23:42.554Z,4.40
2018-03-14T07:26:10.459Z,4.07
2018-03-14T07:28:37.940Z,4.73
2018-03-14T07:31:06.474Z,4.63
2018-03-14T07:33:34.151Z,4.70
2018-03-14T07:36:03.104Z,4.60
2018-03-14T07:38:30.614Z,4.60
2018-03-14T07:40:58.472Z,5.33
2018-03-14T07:43:25.938Z,5.40
2018-03-14T07:45:53.386Z,5.67
2018-03-14T07:48:22.383Z,7.80
2018-03-14T07:50:50.915Z,10.00
2018-03-14T07:53:18.387Z,7.60
2018-03-14T07:55:46.419Z,6.77
2018-03-14T07:58:14.674Z,5.93
2018-03-14T08:00:42.451Z,5.20
2018-03-14T08:03:10.694Z,5.50
2018-03-14T08:05:38.162Z,5.73
2018-03-14T08:08:05.639Z,5.57
2018-03-14T08:10:33.102Z,5.33
2018-03-14T08:13:00.563Z,4.77
2018-03-14T08:15:28.417Z,5.70
2018-03-14T08:17:56.066Z,5.50
2018-03-14T08:20:23.570Z,5.80
2018-03-14T08:22:52.968Z,5.27
2018-03-14T08:25:21.708Z,5.10
2018-03-14T08:27:49.179Z,5.17
2018-03-14T08:30:17.583Z,5.40
2018-03-14T08:32:45.807Z,5.10
2018-03-14T08:35:14.650Z,5.23
2018-03-14T08:37:43.312Z,5.77
2018-03-14T08:40:10.878Z,5.53
2018-03-14T08:42:38.331Z,5.23
2018-03-14T08:45:05.799Z,6.33
2018-03-14T08:47:33.353Z,5.33
2018-03-14T08:50:00.823Z,5.63
2018-03-14T08:52:28.271Z,5.37
2018-03-14T08:54:55.974Z,6.23
2018-03-14T08:57:24.962Z,5.87
2018-03-14T08:59:53.606Z,5.87
2018-03-14T09:02:21.065Z,5.60
2018-03-14T09:04:48.630Z,6.20
2018-03-14T09:07:16.082Z,6.53
2018-03-14T09:09:43.646Z,6.50
2018-03-14T09:12:11.102Z,6.47
2018-03-14T09:14:38.562Z,5.50
2018-03-14T09:17:06.026Z,6.83
2018-03-14T09:19:34.099Z,5.87
2018-03-14T09:22:02.399Z,5.67
2018-03-14T09:24:30.626Z,6.57
2018-03-14T09:26:59.013Z,5.10
2018-03-14T09:29:26.489Z,5.47
2018-03-14T09:31:53.941Z,6.10
2018-03-14T09:34:21.402Z,5.50
2018-03-14T09:36:48.863Z,6.13
2018-03-14T09:39:16.420Z,5.87
2018-03-14T09:41:43.876Z,6.10
2018-03-14T09:44:11.336Z,5.93
2018-03-14T09:46:38.786Z,6.17
2018-03-14T09:49:06.358Z,5.80
2018-03-14T09:51:34.936Z,5.47
2018-03-14T09:54:02.396Z,6.63
2018-03-14T09:56:29.857Z,5.83
2018-03-14T09:58:57.318Z,6.00
2018-03-14T10:01:24.798Z,6.33
2018-03-14T10:03:54.607Z,6.60
2018-03-14T10:06:22.040Z,6.10
2018-03-14T10:08:49.616Z,5.83
2018-03-14T10:11:17.078Z,6.10
2018-03-14T10:13:44.531Z,5.77
2018-03-14T10:16:12.385Z,5.63
2018-03-14T10:18:39.843Z,5.93
2018-03-14T10:21:07.408Z,5.63
2018-03-14T10:23:34.866Z,6.63
2018-03-14T10:26:02.433Z,5.87
2018-03-14T10:28:30.515Z,5.60
2018-03-14T10:30:57.969Z,5.73
2018-03-14T10:33:25.416Z,5.17
2018-03-14T10:35:52.976Z,5.37
2018-03-14T10:38:20.743Z,5.13
2018-03-14T10:40:49.147Z,5.27
2018-03-14T10:43:16.563Z,5.20
2018-03-14T10:45:44.031Z,6.20
2018-03-14T10:48:11.481Z,5.40
2018-03-14T10:50:38.944Z,5.77
2018-03-14T10:53:06.805Z,5.63
2018-03-14T10:55:34.699Z,6.13
2018-03-14T10:58:02.467Z,6.13
2018-03-14T11:00:35.755Z,6.10
2018-03-14T11:03:03.582Z,5.57
2018-03-14T11:05:31.579Z,6.53
2018-03-14T11:07:59.050Z,7.07
2018-03-14T11:10:26.643Z,6.77
2018-03-14T11:12:54.323Z,7.00
2018-03-14T11:15:21.778Z,6.57
2018-03-14T11:17:49.250Z,8.10
2018-03-14T11:20:16.881Z,7.00
2018-03-14T11:22:44.342Z,7.43
2018-03-14T11:25:11.865Z,7.47
2018-03-14T11:27:40.151Z,6.93
2018-03-14T11:30:07.611Z,7.03
2018-03-14T11:32:35.839Z,7.70
2018-03-14T11:35:03.290Z,6.60
2018-03-14T11:37:30.755Z,6.70
2018-03-14T11:39:58.834Z,7.17
2018-03-14T11:42:26.343Z,6.93
2018-03-14T11:44:54.538Z,7.47
2018-03-14T11:47:22.198Z,6.17
2018-03-14T11:49:49.758Z,6.80
2018-03-14T11:52:18.242Z,6.80
2018-03-14T11:54:46.374Z,6.73
2018-03-14T11:57:13.831Z,7.00
2018-03-14T11:59:41.294Z,6.50
2018-03-14T12:02:08.747Z,6.17
2018-03-14T12:04:36.227Z,6.87
2018-03-14T12:07:04.443Z,7.03
2018-03-14T12:09:32.026Z,6.30
2018-03-14T12:12:00.874Z,6.13
2018-03-14T12:14:28.330Z,7.20
2018-03-14T12:16:56.729Z,6.00
2018-03-14T12:19:24.595Z,5.83
2018-03-14T12:21:52.094Z,6.13
2018-03-14T12:24:19.551Z,6.10
2018-03-14T12:26:47.231Z,6.07
2018-03-14T12:29:14.678Z,6.50
2018-03-14T12:31:42.882Z,6.07
2018-03-14T12:34:11.601Z,6.00
2018-03-14T12:36:39.459Z,6.67
2018-03-14T12:39:07.434Z,6.03
2018-03-14T12:41:35.787Z,5.83
2018-03-14T12:44:04.022Z,6.63
2018-03-14T12:46:31.486Z,6.40
2018-03-14T12:48:58.941Z,5.63
2018-03-14T12:51:26.503Z,5.40
2018-03-14T12:53:54.578Z,6.50
2018-03-14T12:56:22.134Z,6.10
2018-03-14T12:58:49.603Z,6.50
2018-03-14T13:01:17.046Z,6.30
2018-03-14T13:03:44.630Z,5.43
2018-03-14T13:06:12.070Z,6.30
2018-03-14T13:08:40.182Z,6.73
2018-03-14T13:11:08.484Z,6.10
2018-03-14T13:13:36.090Z,6.53
2018-03-14T13:16:04.122Z,5.90
2018-03-14T13:18:32.799Z,5.13
2018-03-14T13:21:00.267Z,5.77
2018-03-14T13:23:28.823Z,5.97
2018-03-14T13:25:57.043Z,6.00
2018-03-14T13:28:24.506Z,5.57
2018-03-14T13:30:52.070Z,5.63
2018-03-14T13:33:19.522Z,6.17
2018-03-14T13:35:47.190Z,6.33
2018-03-14T13:38:15.075Z,6.37
2018-03-14T13:40:42.523Z,6.27
2018-03-14T13:43:10.179Z,6.37
2018-03-14T13:45:37.622Z,5.93
2018-03-14T13:48:05.115Z,6.17
2018-03-14T13:50:32.567Z,6.17
2018-03-14T13:53:00.899Z,5.97
2018-03-14T13:55:28.350Z,6.00
2018-03-14T13:57:56.406Z,5.77
2018-03-14T14:00:24.651Z,6.33
2018-03-14T14:02:52.124Z,5.50
2018-03-14T14:05:20.136Z,5.13
2018-03-14T14:07:49.147Z,5.57
2018-03-14T14:10:17.323Z,5.13
2018-03-14T14:12:44.783Z,6.37
2018-03-14T14:15:13.950Z,5.90
2018-03-14T14:17:42.033Z,5.30
2018-03-14T14:20:09.472Z,6.07
2018-03-14T14:22:38.334Z,5.50
2018-03-14T14:25:05.778Z,5.87
2018-03-14T14:27:33.622Z,5.60
2018-03-14T14:30:01.086Z,5.20
2018-03-14T14:32:29.203Z,5.13
2018-03-14T14:34:57.462Z,5.23
2018-03-14T14:37:24.915Z,5.63
2018-03-14T14:39:52.370Z,5.63
2018-03-14T14:42:19.834Z,6.47
2018-03-14T14:44:47.291Z,5.57
2018-03-14T14:47:15.471Z,5.87
2018-03-14T14:49:43.642Z,5.07
2018-03-14T14:52:11.898Z,5.60
2018-03-14T14:54:39.352Z,5.57
2018-03-14T14:57:06.800Z,4.90
2018-03-14T14:59:34.423Z,5.37
2018-03-14T15:02:02.647Z,5.57
2018-03-14T15:04:30.236Z,5.77
2018-03-14T15:06:57.712Z,6.40
2018-03-14T15:09:25.934Z,5.73
2018-03-14T15:11:53.419Z,5.60
2018-03-14T15:14:20.877Z,6.30
2018-03-14T15:16:48.350Z,5.67
2018-03-14T15:19:16.323Z,5.80
2018-03-14T15:21:43.970Z,5.60
2018-03-14T15:24:12.462Z,6.10
2018-03-14T15:26:41.126Z,6.03
2018-03-14T15:29:08.591Z,5.37
2018-03-14T15:31:37.023Z,5.93
2018-03-14T15:34:04.474Z,5.87
2018-03-14T15:36:31.958Z,5.73
2018-03-14T15:38:59.635Z,6.10
2018-03-14T15:41:27.571Z,5.77
2018-03-14T15:43:55.647Z,6.77
2018-03-14T15:46:23.116Z,5.33
2018-03-14T15:48:51.538Z,5.97
2018-03-14T15:51:19.110Z,5.90
2018-03-14T15:53:46.555Z,6.07
2018-03-14T15:56:14.122Z,5.80
2018-03-14T15:58:42.414Z,5.77
2018-03-14T16:01:10.630Z,6.03
2018-03-14T16:03:38.123Z,6.13
2018-03-14T16:06:06.138Z,5.97
2018-03-14T16:08:34.071Z,6.77
2018-03-14T16:11:01.522Z,6.00
2018-03-14T16:13:29.085Z,5.87
2018-03-14T16:15:56.535Z,6.27
2018-03-14T16:18:24.798Z,6.37
2018-03-14T16:20:52.282Z,5.77
2018-03-14T16:23:19.772Z,6.33
2018-03-14T16:25:47.306Z,8.67
2018-03-14T16:28:14.789Z,5.90
2018-03-14T16:30:43.036Z,6.30
2018-03-14T16:33:10.490Z,6.97
2018-03-14T16:35:38.763Z,5.63
2018-03-14T16:38:07.058Z,5.53
2018-03-14T16:40:36.200Z,5.87
2018-03-14T16:43:04.275Z,6.20
2018-03-14T16:45:31.718Z,6.77
2018-03-14T16:47:59.230Z,6.00
2018-03-14T16:50:27.447Z,6.20
2018-03-14T16:52:54.990Z,6.80
2018-03-14T16:55:23.751Z,6.30
2018-03-14T16:57:51.611Z,6.73
2018-03-14T17:00:19.177Z,7.57
2018-03-14T17:02:47.982Z,7.23
2018-03-14T17:05:15.447Z,6.87
2018-03-14T17:07:44.419Z,7.93
2018-03-14T17:10:11.882Z,7.23
2018-03-14T17:12:40.163Z,8.37
2018-03-14T17:15:08.426Z,7.20
2018-03-14T17:17:36.063Z,8.47
2018-03-14T17:20:03.517Z,8.10
2018-03-14T17:22:31.243Z,7.13
2018-03-14T17:24:59.968Z,7.93
2018-03-14T17:27:28.233Z,8.30
2018-03-14T17:29:56.572Z,8.63
2018-03-14T17:32:24.198Z,8.47
2018-03-14T17:34:51.686Z,8.07
2018-03-14T17:37:20.609Z,8.70
2018-03-14T17:39:48.946Z,8.57
2018-03-14T17:42:16.824Z,9.30
2018-03-14T17:44:45.806Z,8.33
2018-03-14T17:47:13.678Z,8.17
2018-03-14T17:49:41.160Z,8.13
2018-03-14T17:52:08.702Z,8.90
2018-03-14T17:54:36.163Z,8.00
2018-03-14T17:57:03.616Z,8.30
2018-03-14T17:59:31.091Z,9.20
2018-03-14T18:01:59.040Z,10.47
2018-03-14T18:04:26.566Z,9.43
2018-03-14T18:06:54.022Z,8.97
2018-03-14T18:09:22.867Z,8.13
2018-03-14T18:11:50.329Z,9.40
2018-03-14T18:14:17.905Z,9.70
2018-03-14T18:16:46.318Z,9.37
2018-03-14T18:19:13.774Z,10.03
2018-03-14T18:21:41.246Z,10.10
2018-03-14T18:24:08.713Z,9.23
2018-03-14T18:26:36.815Z,9.00
2018-03-14T18:29:04.932Z,11.33
2018-03-14T18:31:32.388Z,10.77
2018-03-14T18:33:59.854Z,10.33
2018-03-14T18:36:27.590Z,10.13
2018-03-14T18:38:55.154Z,9.70
2018-03-14T18:41:23.499Z,16.20
2018-03-14T18:43:50.971Z,10.97
2018-03-14T18:46:18.526Z,11.10
2018-03-14T18:48:46.767Z,11.80
2018-03-14T18:51:14.226Z,13.40
2018-03-14T18:53:42.091Z,11.23
2018-03-14T18:56:09.575Z,12.07
2018-03-14T18:58:37.795Z,11.93
2018-03-14T19:01:05.336Z,11.57
2018-03-14T19:06:17.530Z,12.17
2018-03-14T19:08:45.014Z,12.67
2018-03-14T19:11:13.248Z,13.00
2018-03-14T19:13:40.731Z,12.30
2018-03-14T19:16:08.975Z,15.53
2018-03-14T19:18:36.446Z,13.73
2018-03-14T19:21:04.167Z,13.97
2018-03-14T19:23:31.639Z,13.53
2018-03-14T19:25:59.150Z,13.10
2018-03-14T19:28:26.613Z,16.27
2018-03-14T19:30:54.075Z,14.67
2018-03-14T19:33:22.304Z,15.00
2018-03-14T19:35:50.662Z,14.17
2018-03-14T19:38:18.297Z,15.03
2018-03-14T19:40:47.459Z,14.77
2018-03-14T19:43:14.937Z,13.90
2018-03-14T19:45:43.499Z,14.77
2018-03-14T19:48:10.964Z,15.10
2018-03-14T19:50:39.050Z,14.97
2018-03-14T19:53:06.511Z,15.40
2018-03-14T19:55:34.031Z,15.30
2018-03-14T19:58:01.505Z,15.77
2018-03-14T20:00:29.275Z,15.87
2018-03-14T20:02:56.767Z,16.07
2018-03-14T20:05:25.028Z,15.77
2018-03-14T20:07:52.535Z,15.67
2018-03-14T20:10:19.994Z,15.77
2018-03-14T20:12:48.147Z,17.58
2018-03-14T20:15:16.370Z,18.43
2018-03-14T20:17:43.897Z,17.53
2018-03-14T20:20:11.363Z,17.83
2018-03-14T20:22:38.836Z,19.17
2018-03-14T20:25:06.593Z,18.33
2018-03-14T20:27:34.072Z,17.73
2018-03-14T20:30:01.556Z,19.13
2018-03-14T20:32:29.111Z,18.70
2018-03-14T20:34:56.571Z,18.60
2018-03-14T20:37:24.369Z,19.17
2018-03-14T20:39:51.835Z,18.53
2018-03-14T20:42:19.299Z,18.30
2018-03-14T20:44:46.779Z,19.00
2018-03-14T20:47:14.296Z,18.13
2018-03-14T20:49:41.787Z,18.57
2018-03-14T20:52:09.266Z,18.07
2018-03-14T20:54:36.742Z,21.00
2018-03-14T20:57:04.357Z,19.47
2018-03-14T20:59:31.825Z,19.25
2018-03-14T21:01:59.307Z,19.75
2018-03-14T21:04:26.963Z,19.57
2018-03-14T21:06:54.440Z,20.33
2018-03-14T21:09:21.935Z,20.60
2018-03-14T21:11:49.415Z,19.90
2018-03-14T21:14:16.891Z,20.73
2018-03-14T21:16:44.891Z,21.17
2018-03-14T21:19:12.875Z,20.85
2018-03-14T21:21:41.115Z,23.95
2018-03-14T21:24:08.942Z,21.55
2018-03-14T21:26:36.419Z,22.87
2018-03-14T21:29:03.888Z,22.00
2018-03-14T21:31:31.345Z,20.77
2018-03-14T21:33:58.810Z,21.83
2018-03-14T21:36:26.297Z,21.25
2018-03-14T21:38:54.979Z,23.52
2018-03-14T21:41:22.443Z,21.30
2018-03-14T21:43:51.283Z,21.52
2018-03-14T21:46:18.816Z,23.08
2018-03-14T21:48:46.278Z,23.90
2018-03-14T21:51:14.229Z,22.48
2018-03-14T21:53:43.238Z,23.58
2018-03-14T21:56:10.764Z,23.25
2018-03-14T21:58:39.146Z,23.50
2018-03-14T22:01:06.621Z,24.65
2018-03-14T22:03:34.865Z,24.92
2018-03-14T22:06:02.332Z,24.10
2018-03-14T22:08:30.102Z,24.10
2018-03-14T22:10:59.898Z,22.48
2018-03-14T22:13:27.374Z,23.05
2018-03-14T22:15:54.842Z,23.38
2018-03-14T22:18:23.086Z,24.35
2018-03-14T22:20:51.459Z,24.23
2018-03-14T22:23:18.930Z,23.50
2018-03-14T22:25:46.400Z,23.75
2018-03-14T22:28:13.872Z,24.17
2018-03-14T22:30:41.409Z,22.92
2018-03-14T22:33:09.805Z,22.48
2018-03-14T22:35:37.362Z,24.23
2018-03-14T22:38:06.222Z,22.62
2018-03-14T22:40:34.023Z,22.98
2018-03-14T22:43:02.398Z,24.98
2018-03-14T22:45:29.872Z,25.80
2018-03-14T22:47:57.706Z,25.75
2018-03-14T22:50:25.597Z,24.87
2018-03-14T22:52:53.150Z,22.40
2018-03-14T22:55:21.530Z,23.25
2018-03-14T22:57:49.014Z,30.05
2018-03-14T23:00:17.262Z,23.23
2018-03-14T23:02:44.750Z,24.52
2018-03-14T23:05:12.982Z,24.58
2018-03-14T23:07:40.716Z,24.55
2018-03-14T23:10:08.241Z,24.52
2018-03-14T23:12:35.786Z,25.92
2018-03-14T23:15:03.255Z,25.45
2018-03-14T23:17:31.483Z,25.95
2018-03-14T23:19:59.091Z,24.12
2018-03-14T23:22:27.080Z,25.25
2018-03-14T23:24:55.312Z,25.90
2018-03-14T23:27:22.770Z,23.00
2018-03-14T23:29:51.111Z,24.92
2018-03-14T23:32:19.170Z,24.63
2018-03-14T23:34:46.639Z,24.73
2018-03-14T23:37:14.368Z,24.60
2018-03-14T23:39:42.600Z,24.85
2018-03-14T23:42:10.290Z,24.25
2018-03-14T23:44:37.774Z,24.92
2018-03-14T23:47:05.242Z,25.17
2018-03-14T23:49:33.499Z,26.02
2018-03-14T23:52:00.980Z,27.02
2018-03-14T23:54:29.228Z,26.08
2018-03-14T23:56:56.702Z,25.40
2018-03-14T23:59:25.306Z,27.77
